createdAt,value
2017-11-08T00:00:57.792Z,41.87
2017-11-08T00:03:25.272Z,39.40
2017-11-08T00:05:53.553Z,43.87
2017-11-08T00:08:21.037Z,39.40
2017-11-08T00:10:49.342Z,33.90
2017-11-08T00:13:16.864Z,36.60
2017-11-08T00:15:46.178Z,38.00
2017-11-08T00:18:13.689Z,36.10
2017-11-08T00:20:41.185Z,44.07
2017-11-08T00:23:08.715Z,52.83
2017-11-08T00:25:36.997Z,41.43
2017-11-08T00:28:04.496Z,36.87
2017-11-08T00:30:32.009Z,33.50
2017-11-08T00:32:59.544Z,32.80
2017-11-08T00:35:27.035Z,40.53
2017-11-08T00:37:54.589Z,34.47
2017-11-08T00:40:22.103Z,42.03
2017-11-08T00:42:49.613Z,38.07
2017-11-08T00:45:17.856Z,36.20
2017-11-08T00:47:45.394Z,33.23
2017-11-08T00:50:12.903Z,39.20
2017-11-08T00:52:40.446Z,34.30
2017-11-08T00:55:07.960Z,38.77
2017-11-08T00:57:37.273Z,37.20
2017-11-08T01:00:07.536Z,39.87
2017-11-08T01:02:35.817Z,34.93
2017-11-08T01:05:04.090Z,40.53
2017-11-08T01:07:31.580Z,37.93
2017-11-08T01:09:59.140Z,39.60
2017-11-08T01:12:26.634Z,32.67
2017-11-08T01:14:54.120Z,34.50
2017-11-08T01:17:21.661Z,34.20
2017-11-08T01:19:49.944Z,39.40
2017-11-08T01:22:17.454Z,42.97
2017-11-08T01:24:45.725Z,35.57
2017-11-08T01:27:13.238Z,32.33
2017-11-08T01:29:40.764Z,46.63
2017-11-08T01:32:08.256Z,37.20
2017-11-08T01:34:35.785Z,40.10
2017-11-08T01:37:08.932Z,39.67
2017-11-08T01:39:40.273Z,34.70
2017-11-08T01:42:10.634Z,35.63
2017-11-08T01:44:44.024Z,40.30
2017-11-08T01:47:11.537Z,35.63
2017-11-08T01:49:39.024Z,31.50
2017-11-08T01:52:11.436Z,35.63
2017-11-08T01:54:39.707Z,38.00
2017-11-08T01:57:07.245Z,39.30
2017-11-08T01:59:35.144Z,36.73
2017-11-08T02:02:02.659Z,34.07
2017-11-08T02:04:30.171Z,36.20
2017-11-08T02:06:57.696Z,41.27
2017-11-08T02:09:25.945Z,34.80
2017-11-08T02:11:53.454Z,33.07
2017-11-08T02:14:21.002Z,35.87
2017-11-08T02:16:48.511Z,35.70
2017-11-08T02:19:16.817Z,36.73
2017-11-08T02:21:44.304Z,40.10
2017-11-08T02:24:11.813Z,30.50
2017-11-08T02:26:39.317Z,33.33
2017-11-08T02:29:06.805Z,35.50
2017-11-08T02:31:34.330Z,29.67
2017-11-08T02:34:05.510Z,42.53
2017-11-08T02:36:33.050Z,32.83
2017-11-08T02:39:00.527Z,39.37
2017-11-08T02:41:29.171Z,41.70
2017-11-08T02:43:56.720Z,41.33
2017-11-08T02:46:26.021Z,37.17
2017-11-08T02:48:54.280Z,49.07
2017-11-08T02:51:21.802Z,49.63
2017-11-08T02:53:54.277Z,39.87
2017-11-08T02:56:21.797Z,38.70
2017-11-08T02:58:49.318Z,38.20
2017-11-08T03:01:17.635Z,42.00
2017-11-08T03:03:45.908Z,39.20
2017-11-08T03:06:13.441Z,39.90
2017-11-08T03:08:40.928Z,38.23
2017-11-08T03:11:09.202Z,39.20
2017-11-08T03:13:36.720Z,40.63
2017-11-08T03:16:04.212Z,45.10
2017-11-08T03:18:31.748Z,42.70
2017-11-08T03:20:59.237Z,48.70
2017-11-08T03:23:26.762Z,59.50
2017-11-08T03:25:55.018Z,52.20
2017-11-08T03:28:22.506Z,60.37
2017-11-08T03:30:50.021Z,66.60
2017-11-08T03:33:17.519Z,54.23
2017-11-08T03:35:45.008Z,47.37
2017-11-08T03:38:12.522Z,67.43
2017-11-08T03:40:40.801Z,59.97
2017-11-08T03:43:09.059Z,55.80
2017-11-08T03:45:36.580Z,62.50
2017-11-08T03:48:04.069Z,69.20
2017-11-08T03:50:31.576Z,74.70
2017-11-08T03:52:59.093Z,71.87
2017-11-08T03:55:26.584Z,77.33
2017-11-08T03:57:54.072Z,81.83
2017-11-08T04:00:21.586Z,85.23
2017-11-08T04:02:49.836Z,85.57
2017-11-08T04:05:18.133Z,89.27
2017-11-08T04:07:45.616Z,73.87
2017-11-08T04:10:13.101Z,71.67
2017-11-08T04:12:41.377Z,66.40
2017-11-08T04:15:10.517Z,64.03
2017-11-08T04:17:38.005Z,79.10
2017-11-08T04:20:05.496Z,61.50
2017-11-08T04:22:33.014Z,60.87
2017-11-08T04:25:01.292Z,59.33
2017-11-08T04:27:28.812Z,71.70
2017-11-08T04:29:56.295Z,80.73
2017-11-08T04:32:23.820Z,62.47
2017-11-08T04:34:52.069Z,73.83
2017-11-08T04:37:19.557Z,71.00
2017-11-08T04:39:47.062Z,60.23
2017-11-08T04:42:14.549Z,55.90
2017-11-08T04:44:42.076Z,69.53
2017-11-08T04:47:09.568Z,65.10
2017-11-08T04:49:37.065Z,75.33
2017-11-08T04:52:04.575Z,66.53
2017-11-08T04:54:32.115Z,63.67
2017-11-08T04:56:59.596Z,58.53
2017-11-08T04:59:27.086Z,60.37
2017-11-08T05:01:54.596Z,62.57
2017-11-08T05:04:22.085Z,60.20
2017-11-08T05:06:49.601Z,65.50
2017-11-08T05:09:17.093Z,65.03
2017-11-08T05:11:45.372Z,66.00
2017-11-08T05:14:13.619Z,54.03
2017-11-08T05:16:41.111Z,54.70
2017-11-08T05:19:08.629Z,57.90
2017-11-08T05:21:36.116Z,61.87
2017-11-08T05:24:03.603Z,56.40
2017-11-08T05:26:31.128Z,63.03
2017-11-08T05:28:58.648Z,66.37
2017-11-08T05:31:26.142Z,57.93
2017-11-08T05:33:53.667Z,64.17
2017-11-08T05:36:21.157Z,57.63
2017-11-08T05:38:48.641Z,51.47
2017-11-08T05:41:16.177Z,57.03
2017-11-08T05:43:43.673Z,57.20
2017-11-08T05:46:11.167Z,64.03
2017-11-08T05:48:38.684Z,70.27
2017-11-08T05:51:06.179Z,62.07
2017-11-08T05:53:33.717Z,53.07
2017-11-08T05:56:01.600Z,51.47
2017-11-08T05:58:29.145Z,57.30
2017-11-08T06:00:56.661Z,61.77
2017-11-08T06:03:24.157Z,59.80
2017-11-08T06:05:51.665Z,71.73
2017-11-08T06:08:19.932Z,57.70
2017-11-08T06:10:48.190Z,63.53
2017-11-08T06:13:15.798Z,56.83
2017-11-08T06:15:43.276Z,56.33
2017-11-08T06:18:10.769Z,57.37
2017-11-08T06:20:38.323Z,56.07
2017-11-08T06:23:06.581Z,61.57
2017-11-08T06:25:34.132Z,60.50
2017-11-08T06:28:01.633Z,63.10
2017-11-08T06:30:29.149Z,56.70
2017-11-08T06:32:56.632Z,58.00
2017-11-08T06:35:24.165Z,54.93
2017-11-08T06:37:52.417Z,60.63
2017-11-08T06:40:19.910Z,59.70
2017-11-08T06:42:47.416Z,64.70
2017-11-08T06:45:14.933Z,71.80
2017-11-08T06:47:42.423Z,92.87
2017-11-08T06:50:09.952Z,56.57
2017-11-08T06:52:38.418Z,63.53
2017-11-08T06:55:05.940Z,59.17
2017-11-08T06:57:33.436Z,71.87
2017-11-08T07:00:00.946Z,70.53
2017-11-08T07:02:28.464Z,69.73
2017-11-08T07:04:55.981Z,66.27
2017-11-08T07:07:23.470Z,63.63
2017-11-08T07:09:51.012Z,74.90
2017-11-08T07:12:19.260Z,69.53
2017-11-08T07:14:46.739Z,79.23
2017-11-08T07:17:14.244Z,68.77
2017-11-08T07:19:41.733Z,74.93
2017-11-08T07:22:09.229Z,73.63
2017-11-08T07:24:36.734Z,81.80
2017-11-08T07:27:04.217Z,79.90
2017-11-08T07:29:32.493Z,76.37
2017-11-08T07:31:59.992Z,91.77
2017-11-08T07:34:27.472Z,76.90
2017-11-08T07:36:54.955Z,80.77
2017-11-08T07:39:22.476Z,92.03
2017-11-08T07:41:50.745Z,102.67
2017-11-08T07:44:18.227Z,97.40
2017-11-08T07:46:45.748Z,104.20
2017-11-08T07:49:13.236Z,93.67
2017-11-08T07:51:40.724Z,96.73
2017-11-08T07:54:12.241Z,101.43
2017-11-08T07:56:39.724Z,94.43
2017-11-08T07:59:07.221Z,104.07
2017-11-08T08:01:34.737Z,94.83
2017-11-08T08:04:02.248Z,93.00
2017-11-08T08:06:29.736Z,98.60
2017-11-08T08:08:57.236Z,81.93
2017-11-08T08:11:24.715Z,93.60
2017-11-08T08:13:59.533Z,102.03
2017-11-08T08:16:27.032Z,96.17
2017-11-08T08:18:55.294Z,88.37
2017-11-08T08:21:23.551Z,90.33
2017-11-08T08:23:51.036Z,99.57
2017-11-08T08:26:20.988Z,87.07
2017-11-08T08:28:48.498Z,81.57
2017-11-08T08:31:15.983Z,83.73
2017-11-08T08:33:43.464Z,74.90
2017-11-08T08:36:10.976Z,79.80
2017-11-08T08:38:38.470Z,74.27
2017-11-08T08:41:06.724Z,81.17
2017-11-08T08:43:34.229Z,74.80
2017-11-08T08:46:02.477Z,76.00
2017-11-08T08:48:29.959Z,70.83
2017-11-08T08:50:57.473Z,73.10
2017-11-08T08:53:24.954Z,72.70
2017-11-08T08:55:52.440Z,80.17
2017-11-08T08:58:19.941Z,86.07
2017-11-08T09:00:47.423Z,74.93
2017-11-08T09:03:14.909Z,70.73
2017-11-08T09:05:43.185Z,74.17
2017-11-08T09:08:10.668Z,77.93
2017-11-08T09:10:38.929Z,62.83
2017-11-08T09:13:06.448Z,68.27
2017-11-08T09:15:33.931Z,64.30
2017-11-08T09:18:01.424Z,62.73
2017-11-08T09:20:28.931Z,64.87
2017-11-08T09:22:57.195Z,67.60
2017-11-08T09:25:26.629Z,75.23
2017-11-08T09:27:54.141Z,63.03
2017-11-08T09:30:21.633Z,68.37
2017-11-08T09:32:49.120Z,67.07
2017-11-08T09:35:16.637Z,65.83
2017-11-08T09:37:49.789Z,72.80
2017-11-08T09:40:17.302Z,60.83
2017-11-08T09:42:47.378Z,70.10
2017-11-08T09:45:14.868Z,65.33
2017-11-08T09:47:42.380Z,61.87
2017-11-08T09:50:10.636Z,70.97
2017-11-08T09:52:44.844Z,60.87
2017-11-08T09:55:12.324Z,63.83
2017-11-08T09:57:39.814Z,70.63
2017-11-08T10:00:07.331Z,58.47
2017-11-08T10:02:34.820Z,59.13
2017-11-08T10:05:02.314Z,69.87
2017-11-08T10:07:29.840Z,66.40
2017-11-08T10:09:57.343Z,58.40
2017-11-08T10:12:24.833Z,62.87
2017-11-08T10:14:52.344Z,57.53
2017-11-08T10:17:19.832Z,59.83
2017-11-08T10:19:47.403Z,66.50
2017-11-08T10:22:14.873Z,66.53
2017-11-08T10:24:43.981Z,58.57
2017-11-08T10:27:11.469Z,51.20
2017-11-08T10:29:38.989Z,62.33
2017-11-08T10:32:07.252Z,56.60
2017-11-08T10:34:34.737Z,58.33
2017-11-08T10:37:03.108Z,62.70
2017-11-08T10:39:30.591Z,53.30
2017-11-08T10:41:58.123Z,59.53
2017-11-08T10:44:25.605Z,58.60
2017-11-08T10:46:53.861Z,68.57
2017-11-08T10:49:21.357Z,74.43
2017-11-08T10:51:48.883Z,66.23
2017-11-08T10:54:17.177Z,69.90
2017-11-08T10:56:44.661Z,77.40
2017-11-08T10:59:17.911Z,71.37
2017-11-08T11:01:46.161Z,64.50
2017-11-08T11:04:13.677Z,75.17
2017-11-08T11:06:41.953Z,73.23
2017-11-08T11:09:10.205Z,66.63
2017-11-08T11:11:37.698Z,75.80
2017-11-08T11:14:11.239Z,70.17
2017-11-08T11:16:39.494Z,82.97
2017-11-08T11:19:12.933Z,70.03
2017-11-08T11:21:41.191Z,73.03
2017-11-08T11:24:12.598Z,75.93
2017-11-08T11:26:41.915Z,79.63
2017-11-08T11:29:10.257Z,82.13
2017-11-08T11:31:37.786Z,88.17
2017-11-08T11:34:05.276Z,91.63
2017-11-08T11:36:32.767Z,81.47
2017-11-08T11:39:00.301Z,87.07
2017-11-08T11:41:27.790Z,77.13
2017-11-08T11:43:55.292Z,90.17
2017-11-08T11:46:22.807Z,72.00
2017-11-08T11:48:54.116Z,94.60
2017-11-08T11:51:25.445Z,99.60
2017-11-08T11:53:52.935Z,79.43
2017-11-08T11:56:20.422Z,86.40
2017-11-08T11:58:47.946Z,85.00
2017-11-08T12:01:15.437Z,83.00
2017-11-08T12:03:42.927Z,94.60
2017-11-08T12:06:10.446Z,101.77
2017-11-08T12:08:38.706Z,98.93
2017-11-08T12:11:06.197Z,108.23
2017-11-08T12:13:34.473Z,110.07
2017-11-08T12:16:01.961Z,112.80
2017-11-08T12:18:30.216Z,96.93
2017-11-08T12:20:57.746Z,101.93
2017-11-08T12:23:25.233Z,92.10
2017-11-08T12:25:52.722Z,111.57
2017-11-08T12:28:20.264Z,125.40
2017-11-08T12:30:47.754Z,109.40
2017-11-08T12:33:15.267Z,120.00
2017-11-08T12:35:47.470Z,104.40
2017-11-08T12:38:14.960Z,123.87
2017-11-08T12:40:42.465Z,121.23
2017-11-08T12:43:09.977Z,125.40
2017-11-08T12:45:41.181Z,138.97
2017-11-08T12:48:08.690Z,123.83
2017-11-08T12:50:36.310Z,121.37
2017-11-08T12:53:03.802Z,130.73
2017-11-08T12:55:31.306Z,134.10
2017-11-08T12:57:58.839Z,139.47
2017-11-08T13:00:26.335Z,121.27
2017-11-08T13:02:53.833Z,120.53
2017-11-08T13:08:24.265Z,132.97
2017-11-08T13:10:57.513Z,128.30
2017-11-08T13:13:25.772Z,116.23
2017-11-08T13:15:53.261Z,121.73
2017-11-08T13:18:21.536Z,112.57
2017-11-08T13:20:49.028Z,136.20
2017-11-08T13:23:17.292Z,118.10
2017-11-08T13:25:44.823Z,129.93
2017-11-08T13:28:12.326Z,175.57
2017-11-08T13:30:39.820Z,130.30
2017-11-08T13:33:08.145Z,126.33
2017-11-08T13:35:35.646Z,156.63
2017-11-08T13:38:03.150Z,134.37
2017-11-08T13:40:31.503Z,141.63
2017-11-08T13:42:59.050Z,145.47
2017-11-08T13:45:28.341Z,145.73
2017-11-08T13:47:55.869Z,142.93
2017-11-08T13:50:23.373Z,120.60
2017-11-08T13:52:50.879Z,141.60
2017-11-08T13:55:18.398Z,152.00
2017-11-08T13:57:45.910Z,157.57
2017-11-08T14:00:13.418Z,153.67
2017-11-08T14:02:40.954Z,131.70
2017-11-08T14:05:08.449Z,154.53
2017-11-08T14:07:35.946Z,149.87
2017-11-08T14:10:03.463Z,147.83
2017-11-08T14:12:30.961Z,155.23
2017-11-08T14:14:58.449Z,135.03
2017-11-08T14:17:25.965Z,161.67
2017-11-08T14:19:54.228Z,139.67
2017-11-08T14:22:21.725Z,146.23
2017-11-08T14:24:50.013Z,158.00
2017-11-08T14:27:18.277Z,146.87
2017-11-08T14:29:45.785Z,149.07
2017-11-08T14:32:14.061Z,150.03
2017-11-08T14:34:42.317Z,160.23
2017-11-08T14:37:09.809Z,143.70
2017-11-08T14:39:38.093Z,151.70
2017-11-08T14:42:11.364Z,155.10
2017-11-08T14:44:38.937Z,169.03
2017-11-08T14:47:07.402Z,146.27
2017-11-08T14:49:34.979Z,146.37
2017-11-08T14:52:06.458Z,150.00
2017-11-08T14:54:33.945Z,164.57
2017-11-08T14:57:01.444Z,162.37
2017-11-08T14:59:29.054Z,155.27
2017-11-08T15:01:56.550Z,168.07
2017-11-08T15:04:24.050Z,172.00
2017-11-08T15:06:51.579Z,149.40
2017-11-08T15:09:19.081Z,147.43
2017-11-08T15:11:46.574Z,169.43
2017-11-08T15:17:22.337Z,170.17
2017-11-08T15:19:49.863Z,158.23
2017-11-08T15:22:17.352Z,179.87
2017-11-08T15:24:44.845Z,182.53
2017-11-08T15:27:12.377Z,160.30
2017-11-08T15:29:40.635Z,163.40
2017-11-08T15:32:08.140Z,164.67
2017-11-08T15:34:36.443Z,153.83
2017-11-08T15:37:03.939Z,162.97
2017-11-08T15:39:31.445Z,169.23
2017-11-08T15:41:58.966Z,163.17
2017-11-08T15:44:26.465Z,158.43
2017-11-08T15:46:54.883Z,149.00
2017-11-08T15:49:22.409Z,142.80
2017-11-08T15:51:49.906Z,167.30
2017-11-08T15:54:17.406Z,166.37
2017-11-08T15:56:45.698Z,145.37
2017-11-08T15:59:13.204Z,175.33
2017-11-08T16:01:41.680Z,196.87
2017-11-08T16:04:12.026Z,183.27
2017-11-08T16:06:39.538Z,167.27
2017-11-08T16:09:09.478Z,178.43
2017-11-08T16:11:37.800Z,187.63
2017-11-08T16:14:06.064Z,198.97
2017-11-08T16:16:33.570Z,170.43
2017-11-08T16:19:03.021Z,173.03
2017-11-08T16:21:31.258Z,170.23
2017-11-08T16:23:59.517Z,165.57
2017-11-08T16:26:27.074Z,145.00
2017-11-08T16:28:54.570Z,162.77
2017-11-08T16:31:22.077Z,224.40
2017-11-08T16:33:49.631Z,163.67
2017-11-08T16:36:17.911Z,159.30
2017-11-08T16:38:46.177Z,149.37
2017-11-08T16:41:13.698Z,157.53
2017-11-08T16:43:41.201Z,154.97
2017-11-08T16:46:08.706Z,150.57
2017-11-08T16:48:37.001Z,185.47
2017-11-08T16:51:04.517Z,158.30
2017-11-08T16:53:32.047Z,145.53
2017-11-08T16:56:00.333Z,164.67
2017-11-08T16:58:28.592Z,163.60
2017-11-08T17:00:56.082Z,143.33
2017-11-08T17:03:23.599Z,141.60
2017-11-08T17:05:51.099Z,158.43
2017-11-08T17:08:18.609Z,140.00
2017-11-08T17:10:46.889Z,140.50
2017-11-08T17:13:15.152Z,142.07
2017-11-08T17:15:42.658Z,154.80
2017-11-08T17:18:10.967Z,149.90
2017-11-08T17:20:38.473Z,149.37
2017-11-08T17:23:05.970Z,153.60
2017-11-08T17:25:33.515Z,148.47
2017-11-08T17:28:01.006Z,146.70
2017-11-08T17:30:28.502Z,163.43
2017-11-08T17:32:56.815Z,149.70
2017-11-08T17:35:24.317Z,168.83
2017-11-08T17:37:51.813Z,155.80
2017-11-08T17:40:19.341Z,145.03
2017-11-08T17:42:46.860Z,144.57
2017-11-08T17:45:15.131Z,163.90
2017-11-08T17:47:42.649Z,184.93
2017-11-08T17:50:10.148Z,174.53
2017-11-08T17:52:37.650Z,165.60
2017-11-08T17:55:05.178Z,147.37
2017-11-08T17:57:32.674Z,168.43
2017-11-08T18:00:00.194Z,151.90
2017-11-08T18:02:27.738Z,163.27
2017-11-08T18:04:55.247Z,161.03
2017-11-08T18:07:22.752Z,155.90
2017-11-08T18:09:51.060Z,160.27
2017-11-08T18:12:18.575Z,160.37
2017-11-08T18:14:46.076Z,159.20
2017-11-08T18:17:13.601Z,172.27
2017-11-08T18:19:41.854Z,146.00
2017-11-08T18:22:10.116Z,171.37
2017-11-08T18:24:37.639Z,163.10
2017-11-08T18:27:05.127Z,171.80
2017-11-08T18:29:32.619Z,161.70
2017-11-08T18:32:00.147Z,161.87
2017-11-08T18:34:27.646Z,163.03
2017-11-08T18:36:55.136Z,147.27
2017-11-08T18:39:23.489Z,151.37
2017-11-08T18:41:51.758Z,166.80
2017-11-08T18:44:19.257Z,153.00
2017-11-08T18:46:46.793Z,160.67
2017-11-08T18:49:14.292Z,151.57
2017-11-08T18:51:42.549Z,168.53
2017-11-08T18:54:10.067Z,158.47
2017-11-08T18:56:37.563Z,158.47
2017-11-08T18:59:05.086Z,130.37
2017-11-08T19:01:33.411Z,155.50
2017-11-08T19:04:00.914Z,140.13
2017-11-08T19:06:28.411Z,154.57
2017-11-08T19:08:55.926Z,142.90
2017-11-08T19:11:23.417Z,140.03
2017-11-08T19:13:50.922Z,130.17
2017-11-08T19:16:18.441Z,137.20
2017-11-08T19:18:45.941Z,145.77
2017-11-08T19:21:13.433Z,135.90
2017-11-08T19:23:41.002Z,152.93
2017-11-08T19:26:08.506Z,142.93
2017-11-08T19:28:36.034Z,130.43
2017-11-08T19:31:03.809Z,117.80
2017-11-08T19:33:31.314Z,133.80
2017-11-08T19:35:59.574Z,115.53
2017-11-08T19:38:27.094Z,132.80
2017-11-08T19:40:54.592Z,112.27
2017-11-08T19:43:22.094Z,129.17
2017-11-08T19:45:49.653Z,111.70
2017-11-08T19:48:17.149Z,112.67
2017-11-08T19:50:45.418Z,113.60
2017-11-08T19:53:12.942Z,109.97
2017-11-08T19:55:40.440Z,118.57
2017-11-08T19:58:07.935Z,111.30
2017-11-08T20:00:35.471Z,106.10
2017-11-08T20:03:03.921Z,94.70
2017-11-08T20:05:32.181Z,112.30
2017-11-08T20:07:59.716Z,114.53
2017-11-08T20:10:27.201Z,93.87
2017-11-08T20:12:54.697Z,102.97
2017-11-08T20:15:22.218Z,106.60
2017-11-08T20:17:49.715Z,107.53
2017-11-08T20:20:17.198Z,84.77
2017-11-08T20:22:44.735Z,111.30
2017-11-08T20:25:12.242Z,114.13
2017-11-08T20:27:39.764Z,110.60
2017-11-08T20:30:07.298Z,104.80
2017-11-08T20:32:34.873Z,99.37
2017-11-08T20:35:02.411Z,102.13
2017-11-08T20:37:29.933Z,107.37
2017-11-08T20:39:58.212Z,88.83
2017-11-08T20:42:26.485Z,94.57
2017-11-08T20:44:54.046Z,89.53
2017-11-08T20:47:21.547Z,100.60
2017-11-08T20:49:49.554Z,89.73
2017-11-08T20:52:17.082Z,77.70
2017-11-08T20:54:44.582Z,79.83
2017-11-08T20:57:12.094Z,91.00
2017-11-08T20:59:39.606Z,88.50
2017-11-08T21:02:07.151Z,81.73
2017-11-08T21:04:34.721Z,81.10
2017-11-08T21:07:02.308Z,83.73
2017-11-08T21:09:29.806Z,89.53
2017-11-08T21:11:58.071Z,84.53
2017-11-08T21:14:25.620Z,82.47
2017-11-08T21:16:53.107Z,95.57
2017-11-08T21:19:20.593Z,73.63
2017-11-08T21:21:48.118Z,82.20
2017-11-08T21:24:15.614Z,83.80
2017-11-08T21:26:43.106Z,84.70
2017-11-08T21:29:10.629Z,80.33
2017-11-08T21:31:38.117Z,86.00
2017-11-08T21:34:05.616Z,73.17
2017-11-08T21:36:33.126Z,81.70
2017-11-08T21:39:00.620Z,85.43
2017-11-08T21:41:28.111Z,88.63
2017-11-08T21:43:55.628Z,79.80
2017-11-08T21:46:23.114Z,96.83
2017-11-08T21:48:51.197Z,78.00
2017-11-08T21:51:18.752Z,79.43
2017-11-08T21:53:46.237Z,76.93
2017-11-08T21:56:13.753Z,88.73
2017-11-08T21:58:41.266Z,70.33
2017-11-08T22:01:09.531Z,69.20
2017-11-08T22:03:37.114Z,71.10
2017-11-08T22:06:05.399Z,62.43
2017-11-08T22:08:33.676Z,70.30
2017-11-08T22:11:01.945Z,68.53
2017-11-08T22:13:29.461Z,53.00
2017-11-08T22:15:57.717Z,66.67
2017-11-08T22:18:25.212Z,60.87
2017-11-08T22:20:53.490Z,80.23
2017-11-08T22:23:20.986Z,64.80
2017-11-08T22:25:48.490Z,68.70
2017-11-08T22:28:16.001Z,83.87
2017-11-08T22:30:43.614Z,76.30
2017-11-08T22:33:11.131Z,71.87
2017-11-08T22:35:38.650Z,75.77
2017-11-08T22:38:06.197Z,71.77
2017-11-08T22:40:33.691Z,83.17
2017-11-08T22:43:01.204Z,88.83
2017-11-08T22:45:29.462Z,76.87
2017-11-08T22:47:56.954Z,84.10
2017-11-08T22:50:24.467Z,79.10
2017-11-08T22:52:52.715Z,74.47
2017-11-08T22:55:20.198Z,87.00
2017-11-08T22:57:47.726Z,91.43
2017-11-08T23:00:15.239Z,87.33
2017-11-08T23:02:42.730Z,96.43
2017-11-08T23:05:10.354Z,83.00
2017-11-08T23:07:37.965Z,116.47
2017-11-08T23:10:05.459Z,96.47
2017-11-08T23:12:33.741Z,90.20
2017-11-08T23:15:01.233Z,110.03
2017-11-08T23:17:28.729Z,115.27
2017-11-08T23:19:56.249Z,122.67
2017-11-08T23:22:23.738Z,103.50
2017-11-08T23:24:52.011Z,115.70
2017-11-08T23:27:20.322Z,141.77
2017-11-08T23:29:48.586Z,139.47
2017-11-08T23:32:16.141Z,145.43
2017-11-08T23:34:43.666Z,185.40
2017-11-08T23:37:11.162Z,133.97
2017-11-08T23:39:38.657Z,155.63
2017-11-08T23:42:06.181Z,133.63
2017-11-08T23:44:33.670Z,157.93
2017-11-08T23:47:01.217Z,196.60
2017-11-08T23:49:28.741Z,214.43
2017-11-08T23:52:02.753Z,197.07
2017-11-08T23:54:30.288Z,180.43
2017-11-08T23:56:57.807Z,167.67
2017-11-08T23:59:29.345Z,288.23
